createdAt,value
2022-08-29T06:54:44.246Z,5192.00
2022-08-29T06:55:44.915Z,5208.00
2022-08-29T06:56:44.535Z,5076.00
2022-08-29T06:57:44.487Z,4592.00
2022-08-29T06:58:44.482Z,4900.00
2022-08-29T06:59:44.509Z,5064.00
2022-08-29T07:00:49.030Z,4984.00
2022-08-29T07:01:44.499Z,5088.00
2022-08-29T07:02:44.490Z,5080.00
2022-08-29T07:03:44.447Z,5032.00
2022-08-29T07:04:44.392Z,4812.00
2022-08-29T07:05:44.587Z,4604.00
2022-08-29T07:06:44.859Z,4468.00
2022-08-29T07:07:44.514Z,3972.00
2022-08-29T07:08:55.512Z,4120.00
2022-08-29T07:09:44.349Z,3604.00
2022-08-29T07:10:44.710Z,3224.00
2022-08-29T07:11:44.319Z,3800.00
2022-08-29T07:12:44.449Z,4316.00
2022-08-29T07:13:44.287Z,4624.00
2022-08-29T07:14:44.315Z,4864.00
2022-08-29T07:15:44.339Z,4800.00
2022-08-29T07:16:44.264Z,5084.00
2022-08-29T07:17:44.249Z,4960.00
2022-08-29T07:18:44.238Z,5008.00
2022-08-29T07:19:44.220Z,5204.00
2022-08-29T07:20:44.224Z,5568.00
2022-08-29T07:21:44.190Z,5616.00
2022-08-29T07:22:44.193Z,5528.00
2022-08-29T07:23:44.195Z,5612.00
2022-08-29T07:24:44.140Z,5360.00
2022-08-29T07:25:44.204Z,5152.00
2022-08-29T07:26:44.143Z,5196.00
2022-08-29T07:27:44.116Z,5204.00
2022-08-29T07:28:46.171Z,5380.00
2022-08-29T07:30:19.422Z,5300.00
2022-08-29T07:30:44.520Z,5020.00
2022-08-29T07:31:44.277Z,4496.00
2022-08-29T07:32:44.076Z,4236.00
2022-08-29T07:35:31.836Z,5260.00
2022-08-29T07:36:31.794Z,5580.00
2022-08-29T07:37:31.852Z,5636.00
2022-08-29T07:38:31.704Z,5772.00
2022-08-29T07:39:31.710Z,5652.00
2022-08-29T07:40:31.729Z,5520.00
2022-08-29T07:41:31.665Z,5484.00
2022-08-29T07:42:31.935Z,5500.00
2022-08-29T07:43:31.798Z,5400.00
2022-08-29T07:44:34.349Z,5552.00
2022-08-29T07:45:31.582Z,5532.00
2022-08-29T07:46:31.709Z,5552.00
2022-08-29T07:47:31.586Z,5456.00
2022-08-29T07:48:31.517Z,4856.00
2022-08-29T07:49:40.647Z,4768.00
2022-08-29T07:50:31.502Z,4872.00
2022-08-29T07:51:31.488Z,4876.00
2022-08-29T07:52:31.489Z,4804.00
2022-08-29T07:53:31.469Z,4896.00
2022-08-29T07:54:31.451Z,5012.00
2022-08-29T07:55:31.438Z,5292.00
2022-08-29T07:56:34.534Z,5232.00
2022-08-29T07:57:31.435Z,5328.00
2022-08-29T07:58:31.417Z,5368.00
2022-08-29T07:59:31.398Z,5424.00
2022-08-29T08:00:31.376Z,5248.00
2022-08-29T08:01:31.387Z,4988.00
2022-08-29T08:02:31.465Z,4840.00
2022-08-29T08:03:31.335Z,4720.00
2022-08-29T08:04:31.322Z,4864.00
2022-08-29T08:05:31.323Z,4944.00
2022-08-29T08:06:31.295Z,5372.00
2022-08-29T08:07:31.327Z,5696.00
2022-08-29T08:08:31.260Z,5660.00
2022-08-29T08:09:32.382Z,5804.00
2022-08-29T08:10:32.375Z,5788.00
2022-08-29T08:11:32.400Z,5768.00
2022-08-29T08:12:32.397Z,5940.00
2022-08-29T08:13:32.340Z,6740.00
2022-08-29T08:14:35.231Z,6420.00
2022-08-29T08:15:32.331Z,6272.00
2022-08-29T08:16:32.324Z,5912.00
2022-08-29T08:17:32.297Z,5804.00
2022-08-29T08:18:32.295Z,5212.00
2022-08-29T08:19:32.262Z,5556.00
2022-08-29T08:20:33.288Z,5764.00
2022-08-29T08:21:32.254Z,5768.00
2022-08-29T08:22:32.640Z,5840.00
2022-08-29T08:23:33.251Z,5520.00
2022-08-29T08:24:32.928Z,5528.00
2022-08-29T08:25:32.249Z,5632.00
2022-08-29T08:26:32.188Z,5488.00
2022-08-29T08:27:32.307Z,5464.00
2022-08-29T08:28:32.235Z,5556.00
2022-08-29T08:29:32.199Z,5628.00
2022-08-29T08:30:35.532Z,5716.00
2022-08-29T08:31:32.226Z,5560.00
2022-08-29T08:32:32.217Z,5620.00
2022-08-29T08:33:35.000Z,5748.00
2022-08-29T08:34:35.662Z,5976.00
2022-08-29T08:35:32.092Z,5768.00
2022-08-29T08:36:32.069Z,5736.00
2022-08-29T08:37:32.099Z,5828.00
2022-08-29T08:38:32.049Z,5608.00
2022-08-29T08:39:32.050Z,5576.00
2022-08-29T08:40:32.139Z,5676.00
2022-08-29T08:41:32.021Z,5516.00
2022-08-29T08:42:32.038Z,5216.00
2022-08-29T08:43:32.000Z,5296.00
2022-08-29T08:44:35.048Z,5284.00
2022-08-29T08:45:31.966Z,5316.00
2022-08-29T08:46:32.027Z,5352.00
2022-08-29T08:47:33.395Z,5564.00
2022-08-29T08:48:31.950Z,5704.00
2022-08-29T08:49:31.920Z,5556.00
2022-08-29T08:50:31.909Z,5652.00
2022-08-29T08:51:31.936Z,5684.00
2022-08-29T08:52:31.881Z,6120.00
2022-08-29T08:53:32.091Z,5444.00
2022-08-29T08:54:31.914Z,6228.00
2022-08-29T08:55:31.860Z,6096.00
2022-08-29T08:56:31.841Z,5888.00
2022-08-29T08:57:31.880Z,5700.00
2022-08-29T08:58:31.875Z,5560.00
2022-08-29T08:59:31.861Z,5976.00
2022-08-29T09:00:31.802Z,5776.00
2022-08-29T09:01:31.796Z,5744.00
2022-08-29T09:02:31.841Z,5864.00
2022-08-29T09:03:31.920Z,5796.00
2022-08-29T09:04:31.726Z,5612.00
2022-08-29T09:05:31.707Z,5676.00
2022-08-29T09:06:31.699Z,5660.00
2022-08-29T09:07:31.705Z,5604.00
2022-08-29T09:08:31.675Z,5908.00
2022-08-29T09:09:31.666Z,5940.00
2022-08-29T09:10:31.647Z,6152.00
2022-08-29T09:11:31.652Z,6120.00
2022-08-29T09:12:31.644Z,5972.00
2022-08-29T09:13:31.634Z,5816.00
2022-08-29T09:14:31.659Z,5768.00
2022-08-29T09:15:32.827Z,5800.00
2022-08-29T09:16:31.661Z,5900.00
2022-08-29T09:17:31.753Z,5920.00
2022-08-29T09:18:32.026Z,5964.00
2022-08-29T09:19:31.585Z,5724.00
2022-08-29T09:20:31.557Z,5392.00
2022-08-29T09:21:44.411Z,5316.00
2022-08-29T09:22:33.551Z,5168.00
2022-08-29T09:23:31.543Z,5256.00
2022-08-29T09:24:31.500Z,5316.00
2022-08-29T09:25:31.534Z,5512.00
2022-08-29T09:26:31.465Z,5520.00
2022-08-29T09:27:31.864Z,6044.00
2022-08-29T09:28:31.487Z,6080.00
2022-08-29T09:29:31.473Z,5904.00
2022-08-29T09:30:31.420Z,5996.00
2022-08-29T09:31:31.453Z,5776.00
2022-08-29T09:32:33.955Z,5780.00
2022-08-29T09:33:35.641Z,5840.00
2022-08-29T09:34:45.188Z,5884.00
2022-08-29T09:39:39.880Z,5956.00
2022-08-29T09:40:39.174Z,6056.00
2022-08-29T09:41:40.466Z,5992.00
2022-08-29T09:42:41.302Z,5976.00
2022-08-29T09:43:40.400Z,5868.00
2022-08-29T10:09:37.328Z,6548.00
2022-08-29T10:10:38.832Z,5640.00
2022-08-29T10:11:39.510Z,5588.00
2022-08-29T10:12:37.784Z,5504.00
2022-08-29T10:13:37.488Z,5736.00
2022-08-29T10:48:12.155Z,5812.00
2022-08-29T10:49:11.289Z,6200.00
2022-08-29T10:50:21.870Z,6720.00
2022-08-29T10:51:11.408Z,6500.00
2022-08-29T10:52:11.131Z,7368.00
2022-08-29T10:53:11.096Z,7108.00
2022-08-29T10:54:11.093Z,7136.00
2022-08-29T10:55:11.053Z,7956.00
2022-08-29T10:56:11.104Z,7688.00
2022-08-29T10:57:11.030Z,7760.00
2022-08-29T10:58:12.482Z,7736.00
2022-08-29T10:59:11.015Z,7448.00
2022-08-29T11:00:11.009Z,7388.00
2022-08-29T11:01:11.000Z,7816.00
2022-08-29T11:02:11.019Z,8156.00
2022-08-29T11:03:10.998Z,7396.00
2022-08-29T11:04:12.144Z,7032.00
2022-08-29T11:05:12.073Z,7272.00
2022-08-29T11:06:12.073Z,6804.00
2022-08-29T11:07:12.090Z,7352.00
2022-08-29T11:08:16.008Z,6780.00
2022-08-29T11:09:12.039Z,6500.00
2022-08-29T11:10:12.015Z,5860.00
2022-08-29T11:11:12.011Z,5536.00
2022-08-29T11:12:12.511Z,5648.00
2022-08-29T11:13:11.996Z,6168.00
2022-08-29T11:14:11.992Z,6708.00
2022-08-29T11:15:11.995Z,7064.00
2022-08-29T11:16:12.004Z,7440.00
2022-08-29T11:17:11.941Z,7272.00
2022-08-29T11:18:12.006Z,7436.00
2022-08-29T11:19:11.925Z,7596.00
2022-08-29T11:20:11.921Z,7640.00
2022-08-29T11:21:12.023Z,7612.00
2022-08-29T11:22:11.925Z,7548.00
2022-08-29T11:23:11.871Z,7640.00
2022-08-29T11:24:11.866Z,7740.00
2022-08-29T11:25:11.905Z,7596.00
2022-08-29T11:26:11.858Z,7492.00
2022-08-29T11:27:11.899Z,7020.00
2022-08-29T11:28:11.889Z,6944.00
2022-08-29T11:29:11.829Z,6968.00
2022-08-29T11:30:11.823Z,7176.00
2022-08-29T11:31:11.865Z,7376.00
2022-08-29T11:32:11.846Z,7356.00
2022-08-29T11:33:11.863Z,7284.00
2022-08-29T11:34:11.781Z,7364.00
2022-08-29T11:35:11.744Z,7332.00
2022-08-29T11:36:11.798Z,7184.00
2022-08-29T11:37:11.749Z,7220.00
2022-08-29T11:38:11.749Z,7132.00
2022-08-29T11:39:11.867Z,7164.00
2022-08-29T11:40:11.729Z,7244.00
2022-08-29T11:41:28.075Z,7192.00
2022-08-29T11:42:13.765Z,7352.00
2022-08-29T11:43:12.403Z,7268.00
2022-08-29T11:44:11.634Z,7172.00
2022-08-29T11:45:11.872Z,7172.00
2022-08-29T11:46:11.656Z,7188.00
2022-08-29T11:47:11.666Z,7076.00
2022-08-29T11:48:11.650Z,5712.00
2022-08-29T11:49:11.668Z,6824.00
2022-08-29T11:50:11.587Z,5788.00
2022-08-29T11:51:11.582Z,7120.00
2022-08-29T11:52:11.597Z,6992.00
2022-08-29T11:53:16.763Z,6912.00
2022-08-29T11:54:11.675Z,7004.00
2022-08-29T11:55:11.525Z,6836.00
2022-08-29T11:56:11.517Z,6624.00
2022-08-29T11:57:11.507Z,6364.00
2022-08-29T11:58:12.040Z,6948.00
2022-08-29T11:59:11.479Z,6900.00
2022-08-29T12:00:11.479Z,7168.00
2022-08-29T12:01:12.247Z,7040.00
2022-08-29T12:02:11.625Z,7116.00
2022-08-29T12:03:25.233Z,6788.00
2022-08-29T12:04:11.465Z,6968.00
2022-08-29T12:05:11.401Z,7092.00
2022-08-29T12:06:11.450Z,7156.00
2022-08-29T12:07:11.393Z,6944.00
2022-08-29T12:08:35.571Z,7172.00
2022-08-29T12:09:13.677Z,7200.00
2022-08-29T12:10:12.405Z,7200.00
2022-08-29T12:11:11.340Z,7232.00
2022-08-29T12:12:11.331Z,7212.00
2022-08-29T12:13:11.358Z,6788.00
2022-08-29T12:14:11.340Z,7172.00
2022-08-29T12:15:11.302Z,7096.00
2022-08-29T12:16:11.379Z,7012.00
2022-08-29T12:17:11.300Z,7096.00
2022-08-29T12:18:11.284Z,6844.00
2022-08-29T12:19:11.283Z,7360.00
2022-08-29T12:20:11.292Z,6600.00
2022-08-29T12:21:11.273Z,6972.00
2022-08-29T12:22:22.151Z,7540.00
2022-08-29T12:23:11.338Z,6992.00
2022-08-29T12:24:11.247Z,7272.00
2022-08-29T12:25:11.219Z,7332.00
2022-08-29T12:26:22.044Z,7800.00
2022-08-29T12:27:15.306Z,7780.00
2022-08-29T12:28:11.149Z,7816.00
2022-08-29T12:29:11.211Z,7572.00
2022-08-29T12:30:11.147Z,7760.00
2022-08-29T12:31:11.513Z,7524.00
2022-08-29T12:32:22.710Z,7664.00
2022-08-29T12:33:12.150Z,7688.00
2022-08-29T12:34:11.106Z,7688.00
2022-08-29T12:35:11.228Z,7700.00
2022-08-29T12:36:11.074Z,7840.00
2022-08-29T12:37:11.060Z,7912.00
2022-08-29T12:38:11.093Z,7776.00
2022-08-29T12:39:11.066Z,7880.00
2022-08-29T12:40:11.393Z,7448.00
2022-08-29T12:41:11.036Z,7404.00
2022-08-29T12:42:11.017Z,7128.00
2022-08-29T12:43:11.057Z,7288.00
2022-08-29T12:44:10.991Z,7120.00
2022-08-29T12:45:11.020Z,7188.00
2022-08-29T12:46:10.957Z,7488.00
2022-08-29T12:47:10.982Z,7432.00
2022-08-29T12:48:10.981Z,7380.00
2022-08-29T12:49:10.931Z,6872.00
2022-08-29T12:50:10.980Z,7240.00
2022-08-29T12:51:10.928Z,7100.00
2022-08-29T12:52:10.901Z,6648.00
2022-08-29T12:53:10.885Z,7180.00
2022-08-29T12:54:10.869Z,7344.00
2022-08-29T12:55:13.143Z,6932.00
2022-08-29T12:56:10.862Z,6872.00
2022-08-29T12:57:10.871Z,6784.00
2022-08-29T12:58:10.879Z,6768.00
2022-08-29T12:59:10.885Z,5780.00
2022-08-29T13:00:10.807Z,6104.00
2022-08-29T13:01:10.894Z,6012.00
2022-08-29T13:02:10.820Z,6076.00
2022-08-29T13:03:15.251Z,6060.00
2022-08-29T13:04:10.786Z,6188.00
2022-08-29T13:05:10.760Z,6360.00
2022-08-29T13:06:10.779Z,6356.00
2022-08-29T13:07:10.789Z,6676.00
2022-08-29T13:08:13.087Z,6508.00
2022-08-29T13:09:10.774Z,6460.00
2022-08-29T13:10:11.723Z,6564.00
2022-08-29T13:11:10.758Z,6612.00
2022-08-29T13:12:10.693Z,6220.00
2022-08-29T13:13:10.688Z,6152.00
2022-08-29T13:14:10.689Z,6436.00
2022-08-29T13:15:10.671Z,6336.00
2022-08-29T13:16:10.741Z,5752.00
2022-08-29T13:17:10.641Z,6028.00
2022-08-29T13:18:10.620Z,6540.00
2022-08-29T13:19:11.793Z,6744.00
2022-08-29T13:20:10.619Z,6788.00
2022-08-29T13:21:10.612Z,6864.00
2022-08-29T13:22:10.617Z,6816.00
2022-08-29T13:23:10.569Z,6748.00
2022-08-29T13:24:10.570Z,6796.00
2022-08-29T13:25:10.553Z,6760.00
2022-08-29T13:26:11.158Z,6804.00
2022-08-29T13:27:10.564Z,6776.00
2022-08-29T13:28:10.530Z,6776.00
2022-08-29T13:29:10.520Z,6792.00
2022-08-29T13:30:10.482Z,6720.00
2022-08-29T13:31:10.553Z,6324.00
2022-08-29T13:32:10.521Z,5980.00
2022-08-29T13:33:10.472Z,6024.00
2022-08-29T13:34:10.460Z,6200.00
2022-08-29T13:35:11.679Z,6680.00
2022-08-29T13:36:10.452Z,6976.00
2022-08-29T13:37:15.745Z,6896.00
2022-08-29T13:38:10.407Z,6792.00
2022-08-29T13:39:10.407Z,6892.00
2022-08-29T13:40:10.604Z,7044.00
2022-08-29T13:41:10.393Z,7044.00
2022-08-29T13:42:10.364Z,7056.00
2022-08-29T13:43:10.383Z,7052.00
2022-08-29T13:44:10.344Z,7068.00
2022-08-29T13:45:10.369Z,7052.00
2022-08-29T13:46:14.513Z,7028.00
2022-08-29T13:47:10.320Z,7024.00
2022-08-29T13:48:10.325Z,7064.00
2022-08-29T13:49:10.310Z,7044.00
2022-08-29T13:50:10.290Z,7196.00
2022-08-29T13:51:11.265Z,7232.00
2022-08-29T13:52:10.270Z,7260.00
2022-08-29T13:53:10.437Z,7276.00
2022-08-29T13:54:10.231Z,7288.00
2022-08-29T13:55:10.257Z,7284.00
2022-08-29T13:56:10.221Z,7284.00
2022-08-29T13:57:10.219Z,7280.00
2022-08-29T13:58:10.235Z,7276.00
2022-08-29T13:59:10.184Z,7272.00
2022-08-29T14:00:10.174Z,7176.00
2022-08-29T14:02:11.192Z,7200.00
2022-08-29T14:03:10.259Z,7240.00
2022-08-29T14:04:34.554Z,7228.00
2022-08-29T14:05:10.142Z,7208.00
2022-08-29T14:06:10.127Z,7208.00
2022-08-29T14:07:10.118Z,7184.00
2022-08-29T14:08:10.097Z,7200.00
2022-08-29T14:09:10.114Z,7200.00
2022-08-29T14:10:10.081Z,7268.00
2022-08-29T14:11:11.255Z,7260.00
2022-08-29T14:12:10.051Z,7284.00
2022-08-29T14:13:10.051Z,7260.00
2022-08-29T14:14:10.078Z,7160.00
2022-08-29T14:15:10.127Z,6528.00
2022-08-29T14:16:10.029Z,7252.00
2022-08-29T14:17:10.022Z,7216.00
2022-08-29T14:18:10.003Z,7172.00
2022-08-29T14:19:10.033Z,6976.00
2022-08-29T14:20:10.143Z,6876.00
2022-08-29T14:21:09.959Z,6448.00
2022-08-29T14:22:09.957Z,6988.00
2022-08-29T14:23:09.944Z,7064.00
2022-08-29T14:24:09.960Z,7000.00
2022-08-29T14:25:09.926Z,6908.00
2022-08-29T14:26:09.894Z,7084.00
2022-08-29T14:27:09.894Z,7032.00
2022-08-29T14:28:09.883Z,7132.00
2022-08-29T14:29:09.875Z,6904.00
2022-08-29T14:30:10.664Z,7228.00
2022-08-29T14:31:09.893Z,7168.00
2022-08-29T14:32:09.833Z,7116.00
2022-08-29T14:33:09.834Z,7168.00
2022-08-29T14:34:09.824Z,7180.00
2022-08-29T14:35:09.840Z,7136.00
2022-08-29T14:36:09.807Z,7036.00
2022-08-29T14:37:09.787Z,6928.00
2022-08-29T14:38:11.302Z,7012.00
2022-08-29T14:39:09.797Z,6864.00
2022-08-29T14:40:09.858Z,6720.00
2022-08-29T14:41:09.753Z,6548.00
2022-08-29T14:42:09.750Z,6532.00
2022-08-29T14:43:09.731Z,6544.00
2022-08-29T14:44:10.722Z,6492.00
2022-08-29T14:45:09.756Z,6368.00
2022-08-29T14:46:09.762Z,6384.00
2022-08-29T14:47:09.737Z,6324.00
2022-08-29T14:48:09.692Z,6164.00
2022-08-29T14:49:09.679Z,6064.00
2022-08-29T14:50:09.674Z,5336.00
2022-08-29T14:51:09.708Z,5284.00
2022-08-29T14:52:09.657Z,6128.00
2022-08-29T14:53:09.630Z,5796.00
2022-08-29T14:54:09.635Z,6408.00
2022-08-29T14:55:09.597Z,6428.00
2022-08-29T14:56:11.800Z,6440.00
2022-08-29T14:57:09.597Z,6392.00
2022-08-29T14:58:09.590Z,6328.00
2022-08-29T14:59:09.579Z,6112.00
2022-08-29T15:00:09.560Z,6176.00
2022-08-29T15:01:09.669Z,6040.00
2022-08-29T15:02:09.634Z,5216.00
2022-08-29T15:03:09.601Z,5292.00
2022-08-29T15:04:09.521Z,5324.00
2022-08-29T15:05:09.508Z,5492.00
2022-08-29T15:06:09.541Z,5368.00
2022-08-29T15:07:09.482Z,5160.00
2022-08-29T15:08:13.593Z,5132.00
2022-08-29T15:09:09.466Z,5080.00
2022-08-29T15:10:09.486Z,5208.00
2022-08-29T15:11:09.428Z,4928.00
2022-08-29T15:12:09.597Z,5432.00
2022-08-29T15:13:09.424Z,5888.00
2022-08-29T15:14:09.423Z,6000.00
2022-08-29T15:15:09.419Z,5968.00
2022-08-29T15:16:09.437Z,6172.00
2022-08-29T15:17:09.543Z,6200.00
2022-08-29T15:18:12.279Z,6196.00
2022-08-29T15:21:09.344Z,5244.00
2022-08-29T15:22:09.340Z,5144.00
2022-08-29T15:23:09.315Z,5140.00
2022-08-29T15:24:09.292Z,5216.00
2022-08-29T15:25:10.358Z,5464.00
2022-08-29T15:26:09.292Z,5288.00
2022-08-29T15:27:09.335Z,5052.00
2022-08-29T15:28:09.285Z,5216.00
2022-08-29T15:29:09.317Z,5676.00
2022-08-29T15:30:09.246Z,5108.00
2022-08-29T15:31:09.277Z,5092.00
2022-08-29T15:32:09.217Z,5584.00
2022-08-29T15:33:09.236Z,5484.00
2022-08-29T15:34:09.213Z,5460.00
2022-08-29T15:35:14.189Z,5380.00
2022-08-29T15:36:09.167Z,4724.00
2022-08-29T15:37:09.155Z,4696.00
2022-08-29T15:38:09.214Z,4720.00
2022-08-29T15:39:09.130Z,5132.00
2022-08-29T15:40:12.926Z,5364.00
2022-08-29T15:41:09.113Z,5396.00
2022-08-29T15:42:09.142Z,5424.00
2022-08-29T15:43:09.138Z,5404.00
2022-08-29T15:44:09.088Z,5424.00
2022-08-29T15:45:09.091Z,5352.00
2022-08-29T15:46:09.165Z,5168.00
2022-08-29T15:47:11.032Z,5176.00
2022-08-29T15:48:14.296Z,5040.00
2022-08-29T15:49:09.027Z,5144.00
2022-08-29T15:50:09.027Z,4520.00
2022-08-29T15:51:09.112Z,4420.00
2022-08-29T15:52:08.994Z,4376.00
2022-08-29T15:53:08.997Z,4480.00
2022-08-29T15:54:08.973Z,4364.00
2022-08-29T15:55:08.977Z,4432.00
2022-08-29T15:56:08.963Z,4552.00
2022-08-29T15:57:08.950Z,4660.00
2022-08-29T15:58:08.983Z,4936.00
2022-08-29T15:59:08.954Z,4832.00
2022-08-29T16:00:08.901Z,4736.00
2022-08-29T16:01:08.960Z,4496.00
2022-08-29T16:02:08.908Z,4380.00
2022-08-29T16:03:08.922Z,4252.00
2022-08-29T16:04:08.891Z,4136.00
2022-08-29T16:05:08.846Z,4064.00
2022-08-29T16:06:08.846Z,4100.00
2022-08-29T16:07:08.842Z,3876.00
2022-08-29T16:08:14.770Z,3732.00
2022-08-29T16:09:15.263Z,3336.00
2022-08-29T16:10:10.955Z,3236.00
2022-08-29T16:11:08.805Z,3464.00
2022-08-29T16:12:08.770Z,3608.00
2022-08-29T16:13:08.747Z,3216.00
2022-08-29T16:15:09.929Z,3044.00
2022-08-29T16:16:08.796Z,3100.00
2022-08-29T16:17:08.715Z,3216.00
2022-08-29T16:18:08.713Z,3020.00
2022-08-29T16:19:09.178Z,2964.00
2022-08-29T16:20:08.925Z,2880.00
2022-08-29T16:21:08.653Z,2852.00
2022-08-29T16:22:08.656Z,2872.00
2022-08-29T16:23:08.636Z,2916.00
2022-08-29T16:24:08.625Z,2992.00
2022-08-29T16:25:08.662Z,3080.00
2022-08-29T16:26:08.616Z,3100.00
2022-08-29T16:27:08.670Z,3136.00
2022-08-29T16:28:08.624Z,3208.00
2022-08-29T16:29:08.759Z,3288.00
2022-08-29T16:30:08.652Z,3472.00
2022-08-29T16:31:08.665Z,3492.00
2022-08-29T16:32:08.594Z,3528.00
2022-08-29T16:33:08.536Z,3380.00
2022-08-29T16:34:08.527Z,3604.00
2022-08-29T16:35:08.572Z,3512.00
2022-08-29T16:36:08.493Z,3532.00
2022-08-29T16:37:08.491Z,3408.00
2022-08-29T16:38:08.469Z,3172.00
2022-08-29T16:39:08.444Z,3028.00
2022-08-29T16:40:08.562Z,3056.00
2022-08-29T16:41:08.496Z,3088.00
2022-08-29T16:42:08.412Z,3080.00
2022-08-29T16:43:08.422Z,2984.00
2022-08-29T16:56:32.452Z,2788.00
2022-08-29T16:57:31.225Z,2772.00
2022-08-29T16:58:31.081Z,2700.00
2022-08-29T16:59:31.064Z,2556.00
2022-08-29T17:00:31.071Z,2312.00
2022-08-29T17:01:31.099Z,2180.00
2022-08-29T17:02:31.165Z,2064.00
2022-08-29T17:03:31.014Z,2012.00
2022-08-29T17:04:31.028Z,2016.00
2022-08-29T17:05:30.981Z,2032.00
2022-08-29T17:06:31.022Z,1964.00
2022-08-29T17:07:30.961Z,1908.00
2022-08-29T17:08:30.965Z,1884.00
2022-08-29T17:09:30.939Z,1892.00
2022-08-29T17:10:30.905Z,1944.00
2022-08-29T17:11:30.991Z,1972.00
2022-08-29T17:12:30.888Z,1960.00
2022-08-29T17:13:31.094Z,1912.00
2022-08-29T17:14:30.901Z,1948.00
2022-08-29T17:15:30.856Z,1964.00
2022-08-29T17:16:32.219Z,1948.00
2022-08-29T17:17:32.023Z,1912.00
2022-08-29T17:18:32.024Z,1880.00
2022-08-29T17:19:33.151Z,1856.00
2022-08-29T17:20:36.806Z,1816.00
2022-08-29T17:21:31.995Z,1780.00
2022-08-29T17:22:31.955Z,1732.00
2022-08-29T17:23:31.984Z,1704.00
2022-08-29T17:24:31.887Z,1688.00
2022-08-29T17:25:31.939Z,1656.00
2022-08-29T17:26:31.907Z,1620.00
2022-08-29T17:27:31.869Z,1568.00
2022-08-29T17:28:31.876Z,1540.00
2022-08-29T17:29:31.857Z,1496.00
2022-08-29T17:30:31.937Z,1428.00
2022-08-29T17:31:31.798Z,1380.00
2022-08-29T17:32:31.881Z,1348.00
2022-08-29T17:33:31.778Z,1316.00
2022-08-29T17:34:31.820Z,1288.00
2022-08-29T17:35:31.819Z,1268.00
2022-08-29T17:36:31.824Z,1240.00
2022-08-29T17:37:36.245Z,1204.00
2022-08-29T17:38:31.755Z,1188.00
2022-08-29T17:39:31.746Z,1140.00
2022-08-29T17:40:31.794Z,1072.00
2022-08-29T17:41:31.743Z,1040.00
2022-08-29T17:42:31.729Z,1032.00
2022-08-29T17:43:31.754Z,1024.00
2022-08-29T17:44:31.707Z,996.00
2022-08-29T17:45:31.629Z,964.00
2022-08-29T17:46:31.691Z,944.00
2022-08-29T17:47:31.674Z,928.00
2022-08-29T17:48:31.656Z,900.00
2022-08-29T17:49:31.641Z,872.00
2022-08-29T17:50:31.788Z,840.00
2022-08-29T17:51:31.555Z,816.00
2022-08-29T17:52:31.584Z,780.00
2022-08-29T17:53:31.537Z,744.00
2022-08-29T17:54:31.580Z,704.00
2022-08-29T17:55:31.520Z,672.00
2022-08-29T17:56:31.544Z,636.00
2022-08-29T17:57:31.461Z,604.00
2022-08-29T17:58:31.501Z,572.00
2022-08-29T17:59:31.492Z,540.00
2022-08-29T18:00:31.502Z,508.00
2022-08-29T18:01:32.221Z,476.00
2022-08-29T18:02:31.460Z,444.00
2022-08-29T18:03:32.276Z,404.00
2022-08-29T18:04:33.934Z,372.00
2022-08-29T18:05:31.974Z,344.00
2022-08-29T18:06:32.684Z,320.00
2022-08-29T18:07:32.733Z,292.00
2022-08-29T19:00:35.502Z,0.00
2022-08-29T19:01:35.488Z,0.00
2022-08-29T19:02:35.185Z,0.00
2022-08-29T19:03:34.834Z,0.00
2022-08-29T19:04:34.946Z,0.00
2022-08-29T19:05:34.633Z,0.00
2022-08-29T19:06:34.649Z,0.00
2022-08-29T19:07:34.938Z,0.00
2022-08-29T19:08:34.549Z,0.00
2022-08-29T19:09:34.635Z,0.00
2022-08-29T19:10:34.967Z,0.00
2022-08-29T19:11:34.528Z,0.00
2022-08-29T19:12:34.673Z,0.00
2022-08-29T19:13:34.612Z,0.00
2022-08-29T19:14:37.249Z,0.00
2022-08-29T19:15:34.501Z,0.00
2022-08-29T19:16:34.545Z,0.00
2022-08-29T19:17:34.425Z,0.00
2022-08-29T19:18:34.479Z,0.00
2022-08-29T19:19:34.480Z,0.00
2022-08-29T19:20:34.616Z,0.00
2022-08-29T19:21:34.367Z,0.00
2022-08-29T19:22:34.644Z,0.00
2022-08-29T19:23:34.592Z,0.00
2022-08-29T19:24:34.342Z,0.00
2022-08-29T19:25:34.385Z,0.00
2022-08-29T19:26:34.271Z,0.00
2022-08-29T19:27:43.177Z,0.00
2022-08-29T19:28:34.413Z,0.00
2022-08-29T19:29:34.304Z,0.00
2022-08-29T19:30:34.416Z,0.00
2022-08-29T19:31:34.455Z,0.00
2022-08-29T19:32:34.165Z,0.00
2022-08-29T19:33:34.182Z,0.00
2022-08-29T19:34:34.262Z,0.00
2022-08-29T20:47:14.740Z,0.00
2022-08-29T20:48:17.511Z,0.00
